sensor_id;sensor_type;location;lat;lon;timestamp;pressure;altitude;pressure_sealevel;temperature;humidity
63281;BME280;49406;51.044;3.766;2023-04-20T00:02:23;102263.62;;;8.33;48.57
63281;BME280;49406;51.044;3.766;2023-04-20T00:04:58;102263.83;;;8.34;48.94
63281;BME280;49406;51.044;3.766;2023-04-20T00:07:33;102255.21;;;8.28;48.88
63281;BME280;49406;51.044;3.766;2023-04-20T00:10:09;102255.41;;;8.28;49.07
63281;BME280;49406;51.044;3.766;2023-04-20T00:12:44;102254.73;;;8.20;49.26
63281;BME280;49406;51.044;3.766;2023-04-20T00:15:18;102256.02;;;8.18;49.53
63281;BME280;49406;51.044;3.766;2023-04-20T00:17:53;102250.64;;;8.13;49.49
63281;BME280;49406;51.044;3.766;2023-04-20T00:20:28;102255.05;;;8.11;49.66
63281;BME280;49406;51.044;3.766;2023-04-20T00:23:03;102247.39;;;8.06;50.11
63281;BME280;49406;51.044;3.766;2023-04-20T00:25:38;102245.21;;;8.00;50.34
63281;BME280;49406;51.044;3.766;2023-04-20T00:28:12;102245.81;;;7.94;50.39
63281;BME280;49406;51.044;3.766;2023-04-20T00:30:47;102240.42;;;7.90;50.84
63281;BME280;49406;51.044;3.766;2023-04-20T00:33:22;102241.99;;;7.82;51.11
63281;BME280;49406;51.044;3.766;2023-04-20T00:35:57;102243.32;;;7.72;51.48
63281;BME280;49406;51.044;3.766;2023-04-20T00:38:31;102246.38;;;7.66;51.27
63281;BME280;49406;51.044;3.766;2023-04-20T00:41:06;102245.48;;;7.61;52.02
63281;BME280;49406;51.044;3.766;2023-04-20T00:43:49;102247.65;;;7.55;51.77
63281;BME280;49406;51.044;3.766;2023-04-20T00:46:24;102250.88;;;7.53;51.87
63281;BME280;49406;51.044;3.766;2023-04-20T00:48:59;102247.64;;;7.50;51.48
63281;BME280;49406;51.044;3.766;2023-04-20T00:51:35;102240.45;;;7.53;51.62
63281;BME280;49406;51.044;3.766;2023-04-20T00:54:10;102245.11;;;7.52;51.67
63281;BME280;49406;51.044;3.766;2023-04-20T00:56:45;102238.98;;;7.47;51.45
63281;BME280;49406;51.044;3.766;2023-04-20T00:59:20;102240.65;;;7.46;52.00
63281;BME280;49406;51.044;3.766;2023-04-20T01:01:55;102232.60;;;7.40;51.90
63281;BME280;49406;51.044;3.766;2023-04-20T01:04:31;102228.64;;;7.34;52.21
63281;BME280;49406;51.044;3.766;2023-04-20T01:07:07;102228.66;;;7.26;52.59
63281;BME280;49406;51.044;3.766;2023-04-20T01:09:41;102221.27;;;7.20;52.62
63281;BME280;49406;51.044;3.766;2023-04-20T01:12:16;102226.20;;;7.14;52.91
63281;BME280;49406;51.044;3.766;2023-04-20T01:14:51;102220.73;;;7.01;53.15
63281;BME280;49406;51.044;3.766;2023-04-20T01:17:25;102210.32;;;6.85;53.80
63281;BME280;49406;51.044;3.766;2023-04-20T01:20:00;102219.04;;;6.78;54.34
63281;BME280;49406;51.044;3.766;2023-04-20T01:22:40;102221.63;;;6.71;54.96
63281;BME280;49406;51.044;3.766;2023-04-20T01:25:16;102216.53;;;6.65;55.44
63281;BME280;49406;51.044;3.766;2023-04-20T01:27:50;102213.54;;;6.60;55.53
63281;BME280;49406;51.044;3.766;2023-04-20T01:30:25;102215.63;;;6.57;55.49
63281;BME280;49406;51.044;3.766;2023-04-20T01:33:00;102212.84;;;6.53;55.66
63281;BME280;49406;51.044;3.766;2023-04-20T01:35:33;102209.52;;;6.49;55.68
63281;BME280;49406;51.044;3.766;2023-04-20T01:38:07;102200.68;;;6.46;55.92
63281;BME280;49406;51.044;3.766;2023-04-20T01:40:42;102201.71;;;6.45;55.65
63281;BME280;49406;51.044;3.766;2023-04-20T01:43:17;102196.02;;;6.43;55.85
63281;BME280;49406;51.044;3.766;2023-04-20T01:45:52;102191.97;;;6.34;55.99
63281;BME280;49406;51.044;3.766;2023-04-20T01:48:26;102192.98;;;6.29;56.16
63281;BME280;49406;51.044;3.766;2023-04-20T01:51:01;102191.49;;;6.20;56.00
63281;BME280;49406;51.044;3.766;2023-04-20T01:53:36;102189.80;;;6.10;56.36
63281;BME280;49406;51.044;3.766;2023-04-20T01:56:10;102188.59;;;5.99;56.79
63281;BME280;49406;51.044;3.766;2023-04-20T01:58:45;102189.88;;;5.91;57.16
63281;BME280;49406;51.044;3.766;2023-04-20T02:01:20;102185.55;;;5.81;57.35
63281;BME280;49406;51.044;3.766;2023-04-20T02:03:54;102187.23;;;5.69;57.86
63281;BME280;49406;51.044;3.766;2023-04-20T02:06:29;102187.93;;;5.62;57.95
63281;BME280;49406;51.044;3.766;2023-04-20T02:09:05;102186.84;;;5.54;58.22
63281;BME280;49406;51.044;3.766;2023-04-20T02:11:41;102183.96;;;5.49;58.43
63281;BME280;49406;51.044;3.766;2023-04-20T02:14:16;102182.59;;;5.42;58.57
63281;BME280;49406;51.044;3.766;2023-04-20T02:16:50;102182.10;;;5.36;58.66
63281;BME280;49406;51.044;3.766;2023-04-20T02:19:25;102182.45;;;5.29;58.77
63281;BME280;49406;51.044;3.766;2023-04-20T02:22:00;102183.50;;;5.26;59.23
63281;BME280;49406;51.044;3.766;2023-04-20T02:24:35;102177.92;;;5.25;58.92
63281;BME280;49406;51.044;3.766;2023-04-20T02:27:10;102180.99;;;5.24;58.97
63281;BME280;49406;51.044;3.766;2023-04-20T02:29:44;102176.04;;;5.29;58.61
63281;BME280;49406;51.044;3.766;2023-04-20T02:32:19;102173.51;;;5.27;58.78
63281;BME280;49406;51.044;3.766;2023-04-20T02:34:54;102177.63;;;5.23;58.80
63281;BME280;49406;51.044;3.766;2023-04-20T02:37:28;102180.36;;;5.19;58.72
63281;BME280;49406;51.044;3.766;2023-04-20T02:40:04;102176.70;;;5.16;58.59
63281;BME280;49406;51.044;3.766;2023-04-20T02:42:39;102178.76;;;5.15;58.43
63281;BME280;49406;51.044;3.766;2023-04-20T02:45:13;102176.95;;;5.10;58.53
63281;BME280;49406;51.044;3.766;2023-04-20T02:47:48;102180.30;;;5.04;58.35
63281;BME280;49406;51.044;3.766;2023-04-20T02:50:23;102180.85;;;4.98;58.72
63281;BME280;49406;51.044;3.766;2023-04-20T02:52:57;102176.73;;;4.96;58.84
63281;BME280;49406;51.044;3.766;2023-04-20T02:55:32;102175.89;;;4.93;59.03
63281;BME280;49406;51.044;3.766;2023-04-20T02:58:07;102172.94;;;4.89;59.31
63281;BME280;49406;51.044;3.766;2023-04-20T03:00:42;102173.17;;;4.87;59.37
63281;BME280;49406;51.044;3.766;2023-04-20T03:03:17;102169.55;;;4.84;59.80
63281;BME280;49406;51.044;3.766;2023-04-20T03:05:52;102168.05;;;4.86;59.73
63281;BME280;49406;51.044;3.766;2023-04-20T03:08:26;102164.77;;;4.88;59.66
63281;BME280;49406;51.044;3.766;2023-04-20T03:11:01;102160.89;;;4.84;59.73
63281;BME280;49406;51.044;3.766;2023-04-20T03:13:36;102164.61;;;4.82;60.17
63281;BME280;49406;51.044;3.766;2023-04-20T03:16:11;102163.75;;;4.82;60.25
63281;BME280;49406;51.044;3.766;2023-04-20T03:18:45;102161.33;;;4.80;60.65
63281;BME280;49406;51.044;3.766;2023-04-20T03:21:20;102162.14;;;4.78;61.16
63281;BME280;49406;51.044;3.766;2023-04-20T03:23:54;102162.23;;;4.77;61.07
63281;BME280;49406;51.044;3.766;2023-04-20T03:26:29;102157.77;;;4.74;61.45
63281;BME280;49406;51.044;3.766;2023-04-20T03:29:02;102153.64;;;4.71;61.53
63281;BME280;49406;51.044;3.766;2023-04-20T03:31:37;102147.24;;;4.71;61.80
63281;BME280;49406;51.044;3.766;2023-04-20T03:34:11;102146.67;;;4.74;61.91
63281;BME280;49406;51.044;3.766;2023-04-20T03:36:46;102143.05;;;4.75;61.82
63281;BME280;49406;51.044;3.766;2023-04-20T03:39:21;102147.58;;;4.75;62.02
63281;BME280;49406;51.044;3.766;2023-04-20T03:41:55;102143.11;;;4.72;62.14
63281;BME280;49406;51.044;3.766;2023-04-20T03:44:31;102137.01;;;4.68;62.56
63281;BME280;49406;51.044;3.766;2023-04-20T03:47:06;102138.17;;;4.70;63.00
63281;BME280;49406;51.044;3.766;2023-04-20T03:49:41;102138.85;;;4.70;63.11
63281;BME280;49406;51.044;3.766;2023-04-20T03:52:16;102134.17;;;4.74;63.46
63281;BME280;49406;51.044;3.766;2023-04-20T03:54:51;102128.38;;;4.75;63.43
63281;BME280;49406;51.044;3.766;2023-04-20T03:57:25;102127.77;;;4.77;63.40
63281;BME280;49406;51.044;3.766;2023-04-20T04:00:00;102122.37;;;4.80;63.03
63281;BME280;49406;51.044;3.766;2023-04-20T04:02:35;102119.22;;;4.83;62.75
63281;BME280;49406;51.044;3.766;2023-04-20T04:05:10;102115.70;;;4.85;62.80
63281;BME280;49406;51.044;3.766;2023-04-20T04:07:44;102109.58;;;4.80;62.53
63281;BME280;49406;51.044;3.766;2023-04-20T04:10:19;102116.48;;;4.86;62.65
63281;BME280;49406;51.044;3.766;2023-04-20T04:12:54;102112.11;;;4.86;62.61
63281;BME280;49406;51.044;3.766;2023-04-20T04:15:28;102104.34;;;4.83;62.81
63281;BME280;49406;51.044;3.766;2023-04-20T04:18:04;102104.73;;;4.80;62.96
63281;BME280;49406;51.044;3.766;2023-04-20T04:20:39;102101.86;;;4.75;63.14
63281;BME280;49406;51.044;3.766;2023-04-20T04:23:13;102102.02;;;4.75;63.48
63281;BME280;49406;51.044;3.766;2023-04-20T04:25:48;102099.94;;;4.78;64.14
63281;BME280;49406;51.044;3.766;2023-04-20T04:28:23;102089.35;;;4.81;63.71
63281;BME280;49406;51.044;3.766;2023-04-20T04:30:58;102094.10;;;4.86;63.90
63281;BME280;49406;51.044;3.766;2023-04-20T04:33:38;102086.61;;;4.96;64.10
63281;BME280;49406;51.044;3.766;2023-04-20T04:36:13;102088.21;;;5.06;64.13
63281;BME280;49406;51.044;3.766;2023-04-20T04:38:48;102084.06;;;5.18;64.06
63281;BME280;49406;51.044;3.766;2023-04-20T04:41:23;102082.43;;;5.26;64.18
63281;BME280;49406;51.044;3.766;2023-04-20T04:43:58;102076.30;;;5.36;64.13
63281;BME280;49406;51.044;3.766;2023-04-20T04:46:33;102077.17;;;5.46;63.92
63281;BME280;49406;51.044;3.766;2023-04-20T04:49:09;102070.23;;;5.57;64.06
63281;BME280;49406;51.044;3.766;2023-04-20T04:51:43;102062.95;;;5.64;64.10
63281;BME280;49406;51.044;3.766;2023-04-20T04:54:19;102065.85;;;5.78;64.49
63281;BME280;49406;51.044;3.766;2023-04-20T04:56:54;102077.83;;;5.92;64.68
63281;BME280;49406;51.044;3.766;2023-04-20T04:59:30;102074.89;;;6.07;64.98
63281;BME280;49406;51.044;3.766;2023-04-20T05:02:05;102075.38;;;6.14;65.13
63281;BME280;49406;51.044;3.766;2023-04-20T05:04:39;102079.52;;;6.24;66.15
63281;BME280;49406;51.044;3.766;2023-04-20T05:07:14;102083.45;;;6.35;66.33
63281;BME280;49406;51.044;3.766;2023-04-20T05:09:49;102081.20;;;6.47;66.56
63281;BME280;49406;51.044;3.766;2023-04-20T05:12:24;102078.93;;;6.54;66.78
63281;BME280;49406;51.044;3.766;2023-04-20T05:14:58;102079.89;;;6.64;66.76
63281;BME280;49406;51.044;3.766;2023-04-20T05:17:33;102076.20;;;6.72;66.88
63281;BME280;49406;51.044;3.766;2023-04-20T05:20:10;102064.56;;;6.79;66.94
63281;BME280;49406;51.044;3.766;2023-04-20T05:22:44;102060.15;;;6.86;66.95
63281;BME280;49406;51.044;3.766;2023-04-20T05:25:19;102057.59;;;6.91;67.13
63281;BME280;49406;51.044;3.766;2023-04-20T05:27:54;102054.34;;;6.96;67.12
63281;BME280;49406;51.044;3.766;2023-04-20T05:30:28;102055.61;;;7.02;67.17
63281;BME280;49406;51.044;3.766;2023-04-20T05:33:03;102054.34;;;7.09;67.29
63281;BME280;49406;51.044;3.766;2023-04-20T05:35:38;102048.10;;;7.14;67.43
63281;BME280;49406;51.044;3.766;2023-04-20T05:38:13;102051.77;;;7.19;67.66
63281;BME280;49406;51.044;3.766;2023-04-20T05:40:48;102047.73;;;7.25;67.65
63281;BME280;49406;51.044;3.766;2023-04-20T05:43:23;102042.89;;;7.31;67.58
63281;BME280;49406;51.044;3.766;2023-04-20T05:45:57;102043.68;;;7.42;67.70
63281;BME280;49406;51.044;3.766;2023-04-20T05:48:32;102040.77;;;7.51;67.73
63281;BME280;49406;51.044;3.766;2023-04-20T05:51:07;102035.71;;;7.65;67.53
63281;BME280;49406;51.044;3.766;2023-04-20T05:53:41;102032.16;;;7.76;67.34
63281;BME280;49406;51.044;3.766;2023-04-20T05:56:16;102027.05;;;7.83;67.38
63281;BME280;49406;51.044;3.766;2023-04-20T05:58:51;102022.89;;;7.89;67.34
63281;BME280;49406;51.044;3.766;2023-04-20T06:01:26;102014.60;;;7.95;67.51
63281;BME280;49406;51.044;3.766;2023-04-20T06:04:01;102016.12;;;7.98;67.83
63281;BME280;49406;51.044;3.766;2023-04-20T06:06:35;102012.10;;;8.03;67.77
63281;BME280;49406;51.044;3.766;2023-04-20T06:09:10;102009.63;;;8.06;68.01
63281;BME280;49406;51.044;3.766;2023-04-20T06:11:45;102008.30;;;8.08;67.84
63281;BME280;49406;51.044;3.766;2023-04-20T06:14:19;102012.86;;;8.14;67.93
63281;BME280;49406;51.044;3.766;2023-04-20T06:16:54;102013.30;;;8.17;68.23
63281;BME280;49406;51.044;3.766;2023-04-20T06:19:28;102014.62;;;8.19;68.35
63281;BME280;49406;51.044;3.766;2023-04-20T06:22:07;102009.27;;;8.20;68.27
63281;BME280;49406;51.044;3.766;2023-04-20T06:24:42;102008.08;;;8.26;68.43
63281;BME280;49406;51.044;3.766;2023-04-20T06:27:16;102009.80;;;8.30;68.17
63281;BME280;49406;51.044;3.766;2023-04-20T06:29:51;102009.27;;;8.35;67.90
63281;BME280;49406;51.044;3.766;2023-04-20T06:32:27;102001.36;;;8.42;67.76
63281;BME280;49406;51.044;3.766;2023-04-20T06:35:01;101992.70;;;8.49;67.85
63281;BME280;49406;51.044;3.766;2023-04-20T06:37:36;101997.04;;;8.58;67.32
63281;BME280;49406;51.044;3.766;2023-04-20T06:40:12;101988.23;;;8.65;67.34
63281;BME280;49406;51.044;3.766;2023-04-20T06:42:47;101989.62;;;8.75;67.16
63281;BME280;49406;51.044;3.766;2023-04-20T06:45:22;101989.35;;;8.83;67.04
63281;BME280;49406;51.044;3.766;2023-04-20T06:47:56;101982.87;;;8.88;66.90
63281;BME280;49406;51.044;3.766;2023-04-20T06:50:31;101980.27;;;8.93;66.58
63281;BME280;49406;51.044;3.766;2023-04-20T06:53:05;101982.56;;;8.94;66.42
63281;BME280;49406;51.044;3.766;2023-04-20T06:55:40;101979.12;;;8.95;66.60
63281;BME280;49406;51.044;3.766;2023-04-20T06:58:15;101977.95;;;8.96;66.81
63281;BME280;49406;51.044;3.766;2023-04-20T07:00:49;101974.16;;;8.98;66.88
63281;BME280;49406;51.044;3.766;2023-04-20T07:03:24;101974.70;;;8.99;67.18
63281;BME280;49406;51.044;3.766;2023-04-20T07:05:59;101974.55;;;8.99;67.82
63281;BME280;49406;51.044;3.766;2023-04-20T07:08:33;101973.31;;;8.99;67.72
63281;BME280;49406;51.044;3.766;2023-04-20T07:11:08;101972.65;;;9.00;67.80
63281;BME280;49406;51.044;3.766;2023-04-20T07:13:42;101966.54;;;8.99;67.83
63281;BME280;49406;51.044;3.766;2023-04-20T07:16:17;101967.48;;;9.02;68.08
63281;BME280;49406;51.044;3.766;2023-04-20T07:18:52;101959.02;;;9.05;68.48
63281;BME280;49406;51.044;3.766;2023-04-20T07:21:26;101954.49;;;9.10;68.85
63281;BME280;49406;51.044;3.766;2023-04-20T07:24:03;101954.85;;;9.16;68.99
63281;BME280;49406;51.044;3.766;2023-04-20T07:26:38;101950.67;;;9.22;69.42
63281;BME280;49406;51.044;3.766;2023-04-20T07:29:12;101946.35;;;9.28;69.56
63281;BME280;49406;51.044;3.766;2023-04-20T07:31:47;101945.55;;;9.37;69.74
63281;BME280;49406;51.044;3.766;2023-04-20T07:34:22;101946.23;;;9.47;70.22
63281;BME280;49406;51.044;3.766;2023-04-20T07:36:56;101937.48;;;9.53;70.44
63281;BME280;49406;51.044;3.766;2023-04-20T07:39:31;101941.05;;;9.61;70.38
63281;BME280;49406;51.044;3.766;2023-04-20T07:42:04;101942.35;;;9.63;70.72
63281;BME280;49406;51.044;3.766;2023-04-20T07:44:39;101939.73;;;9.63;70.47
63281;BME280;49406;51.044;3.766;2023-04-20T07:47:13;101935.02;;;9.63;70.30
63281;BME280;49406;51.044;3.766;2023-04-20T07:49:48;101940.35;;;9.60;69.93
63281;BME280;49406;51.044;3.766;2023-04-20T07:52:23;101937.20;;;9.55;69.39
63281;BME280;49406;51.044;3.766;2023-04-20T07:54:58;101931.35;;;9.46;69.34
63281;BME280;49406;51.044;3.766;2023-04-20T07:57:33;101936.73;;;9.45;69.46
63281;BME280;49406;51.044;3.766;2023-04-20T08:00:10;101936.78;;;9.41;70.29
63281;BME280;49406;51.044;3.766;2023-04-20T08:02:45;101936.51;;;9.43;70.25
63281;BME280;49406;51.044;3.766;2023-04-20T08:05:20;101946.14;;;9.39;71.17
63281;BME280;49406;51.044;3.766;2023-04-20T08:07:56;101945.15;;;9.29;70.49
63281;BME280;49406;51.044;3.766;2023-04-20T08:10:31;101950.28;;;9.15;70.52
63281;BME280;49406;51.044;3.766;2023-04-20T08:13:06;101943.27;;;9.08;70.64
63281;BME280;49406;51.044;3.766;2023-04-20T08:15:40;101941.55;;;9.09;71.01
63281;BME280;49406;51.044;3.766;2023-04-20T08:18:15;101937.08;;;9.11;71.39
63281;BME280;49406;51.044;3.766;2023-04-20T08:20:50;101933.83;;;9.13;71.74
63281;BME280;49406;51.044;3.766;2023-04-20T08:23:25;101928.09;;;9.14;71.45
63281;BME280;49406;51.044;3.766;2023-04-20T08:26:00;101929.77;;;9.18;71.50
63281;BME280;49406;51.044;3.766;2023-04-20T08:28:34;101923.83;;;9.22;71.09
63281;BME280;49406;51.044;3.766;2023-04-20T08:31:09;101914.80;;;9.35;71.30
63281;BME280;49406;51.044;3.766;2023-04-20T08:33:44;101915.36;;;9.49;71.01
63281;BME280;49406;51.044;3.766;2023-04-20T08:36:18;101912.33;;;9.58;71.07
63281;BME280;49406;51.044;3.766;2023-04-20T08:38:57;101915.25;;;9.62;70.24
63281;BME280;49406;51.044;3.766;2023-04-20T08:41:32;101909.34;;;9.70;70.72
63281;BME280;49406;51.044;3.766;2023-04-20T08:44:07;101906.50;;;9.80;70.27
63281;BME280;49406;51.044;3.766;2023-04-20T08:46:43;101901.93;;;9.85;69.68
63281;BME280;49406;51.044;3.766;2023-04-20T08:49:20;101902.31;;;9.86;69.09
63281;BME280;49406;51.044;3.766;2023-04-20T08:51:55;101900.13;;;9.89;69.82
63281;BME280;49406;51.044;3.766;2023-04-20T08:54:29;101897.84;;;9.95;69.77
63281;BME280;49406;51.044;3.766;2023-04-20T08:57:04;101899.26;;;10.03;69.27
63281;BME280;49406;51.044;3.766;2023-04-20T08:59:39;101894.61;;;10.11;68.12
63281;BME280;49406;51.044;3.766;2023-04-20T09:02:14;101891.11;;;10.11;67.61
63281;BME280;49406;51.044;3.766;2023-04-20T09:04:49;101889.73;;;10.11;68.06
63281;BME280;49406;51.044;3.766;2023-04-20T09:07:33;101886.96;;;10.12;67.73
63281;BME280;49406;51.044;3.766;2023-04-20T09:10:10;101888.77;;;10.15;67.51
63281;BME280;49406;51.044;3.766;2023-04-20T09:12:45;101887.27;;;10.11;66.95
63281;BME280;49406;51.044;3.766;2023-04-20T09:15:27;101884.92;;;10.09;66.53
63281;BME280;49406;51.044;3.766;2023-04-20T09:18:11;101884.80;;;10.04;66.76
63281;BME280;49406;51.044;3.766;2023-04-20T09:20:47;101878.96;;;10.01;67.08
63281;BME280;49406;51.044;3.766;2023-04-20T09:23:22;101876.10;;;9.99;67.57
63281;BME280;49406;51.044;3.766;2023-04-20T09:25:57;101870.73;;;9.94;67.66
63281;BME280;49406;51.044;3.766;2023-04-20T09:28:37;101869.92;;;9.90;68.20
63281;BME280;49406;51.044;3.766;2023-04-20T09:31:19;101860.24;;;9.93;68.49
63281;BME280;49406;51.044;3.766;2023-04-20T09:33:59;101855.48;;;9.98;68.37
63281;BME280;49406;51.044;3.766;2023-04-20T09:36:38;101851.14;;;10.00;68.82
63281;BME280;49406;51.044;3.766;2023-04-20T09:39:15;101855.89;;;10.01;68.82
63281;BME280;49406;51.044;3.766;2023-04-20T09:41:51;101852.44;;;10.02;68.47
63281;BME280;49406;51.044;3.766;2023-04-20T09:44:25;101846.92;;;10.05;68.22
63281;BME280;49406;51.044;3.766;2023-04-20T09:47:00;101850.77;;;10.11;67.75
63281;BME280;49406;51.044;3.766;2023-04-20T09:49:36;101849.15;;;10.17;67.67
63281;BME280;49406;51.044;3.766;2023-04-20T09:52:11;101845.23;;;10.26;67.60
63281;BME280;49406;51.044;3.766;2023-04-20T09:54:46;101842.93;;;10.32;67.21
63281;BME280;49406;51.044;3.766;2023-04-20T09:57:20;101838.31;;;10.36;67.05
63281;BME280;49406;51.044;3.766;2023-04-20T09:59:56;101835.20;;;10.30;67.22
63281;BME280;49406;51.044;3.766;2023-04-20T10:02:32;101828.91;;;10.18;67.61
63281;BME280;49406;51.044;3.766;2023-04-20T10:05:08;101827.36;;;10.12;67.51
63281;BME280;49406;51.044;3.766;2023-04-20T10:07:43;101822.95;;;10.16;67.30
63281;BME280;49406;51.044;3.766;2023-04-20T10:10:17;101818.07;;;10.30;67.21
63281;BME280;49406;51.044;3.766;2023-04-20T10:12:54;101811.70;;;10.35;66.46
63281;BME280;49406;51.044;3.766;2023-04-20T10:15:39;101815.91;;;10.49;66.84
63281;BME280;49406;51.044;3.766;2023-04-20T10:18:18;101811.92;;;10.66;65.51
63281;BME280;49406;51.044;3.766;2023-04-20T10:21:06;101802.74;;;10.70;64.50
63281;BME280;49406;51.044;3.766;2023-04-20T10:23:49;101804.06;;;10.66;64.39
63281;BME280;49406;51.044;3.766;2023-04-20T10:26:34;101804.73;;;10.65;66.18
63281;BME280;49406;51.044;3.766;2023-04-20T10:29:09;101806.98;;;10.64;69.19
63281;BME280;49406;51.044;3.766;2023-04-20T10:31:44;101803.50;;;10.49;71.24
63281;BME280;49406;51.044;3.766;2023-04-20T10:34:30;101803.95;;;10.39;72.83
63281;BME280;49406;51.044;3.766;2023-04-20T10:37:09;101787.23;;;10.42;73.28
63281;BME280;49406;51.044;3.766;2023-04-20T10:39:46;101788.67;;;10.51;73.26
63281;BME280;49406;51.044;3.766;2023-04-20T10:42:21;101800.95;;;10.45;73.51
63281;BME280;49406;51.044;3.766;2023-04-20T10:44:55;101795.86;;;10.44;74.00
63281;BME280;49406;51.044;3.766;2023-04-20T10:47:32;101794.92;;;10.41;73.95
63281;BME280;49406;51.044;3.766;2023-04-20T10:50:11;101792.15;;;10.36;73.85
63281;BME280;49406;51.044;3.766;2023-04-20T10:52:47;101786.79;;;10.24;74.09
63281;BME280;49406;51.044;3.766;2023-04-20T10:55:24;101776.28;;;10.17;74.65
63281;BME280;49406;51.044;3.766;2023-04-20T10:57:58;101773.34;;;10.10;75.31
63281;BME280;49406;51.044;3.766;2023-04-20T11:00:33;101766.23;;;10.06;75.33
63281;BME280;49406;51.044;3.766;2023-04-20T11:03:11;101778.38;;;10.09;75.04
63281;BME280;49406;51.044;3.766;2023-04-20T11:05:50;101788.15;;;10.02;75.43
63281;BME280;49406;51.044;3.766;2023-04-20T11:08:36;101781.23;;;9.91;76.64
63281;BME280;49406;51.044;3.766;2023-04-20T11:11:21;101777.78;;;9.87;76.66
63281;BME280;49406;51.044;3.766;2023-04-20T11:14:07;101775.40;;;9.89;76.95
63281;BME280;49406;51.044;3.766;2023-04-20T11:16:51;101770.17;;;9.83;77.49
63281;BME280;49406;51.044;3.766;2023-04-20T11:19:28;101771.19;;;9.75;78.34
63281;BME280;49406;51.044;3.766;2023-04-20T11:22:04;101766.77;;;9.73;78.40
63281;BME280;49406;51.044;3.766;2023-04-20T11:24:39;101767.33;;;9.68;79.08
63281;BME280;49406;51.044;3.766;2023-04-20T11:27:21;101765.09;;;9.75;79.02
63281;BME280;49406;51.044;3.766;2023-04-20T11:29:58;101761.58;;;9.81;79.24
63281;BME280;49406;51.044;3.766;2023-04-20T11:32:37;101758.42;;;9.80;79.81
63281;BME280;49406;51.044;3.766;2023-04-20T11:35:12;101759.73;;;9.71;79.73
63281;BME280;49406;51.044;3.766;2023-04-20T11:37:48;101761.45;;;9.70;79.95
63281;BME280;49406;51.044;3.766;2023-04-20T11:40:23;101758.63;;;9.69;80.42
63281;BME280;49406;51.044;3.766;2023-04-20T11:42:58;101757.44;;;9.70;80.28
63281;BME280;49406;51.044;3.766;2023-04-20T11:45:33;101755.09;;;9.67;80.65
63281;BME280;49406;51.044;3.766;2023-04-20T11:48:08;101749.84;;;9.67;80.64
63281;BME280;49406;51.044;3.766;2023-04-20T11:50:42;101748.34;;;9.70;80.88
63281;BME280;49406;51.044;3.766;2023-04-20T11:53:17;101742.49;;;9.79;81.17
63281;BME280;49406;51.044;3.766;2023-04-20T11:55:52;101741.23;;;9.99;80.36
63281;BME280;49406;51.044;3.766;2023-04-20T11:58:26;101738.98;;;10.14;79.62
63281;BME280;49406;51.044;3.766;2023-04-20T12:01:01;101745.80;;;10.20;79.33
63281;BME280;49406;51.044;3.766;2023-04-20T12:03:37;101741.46;;;10.35;79.04
63281;BME280;49406;51.044;3.766;2023-04-20T12:06:12;101737.73;;;10.47;79.09
63281;BME280;49406;51.044;3.766;2023-04-20T12:08:47;101742.16;;;10.51;78.11
63281;BME280;49406;51.044;3.766;2023-04-20T12:11:21;101743.64;;;10.46;78.42
63281;BME280;49406;51.044;3.766;2023-04-20T12:13:56;101733.51;;;10.40;78.75
63281;BME280;49406;51.044;3.766;2023-04-20T12:16:32;101733.66;;;10.39;78.59
63281;BME280;49406;51.044;3.766;2023-04-20T12:19:07;101728.20;;;10.29;78.22
63281;BME280;49406;51.044;3.766;2023-04-20T12:21:41;101731.33;;;10.21;77.92
63281;BME280;49406;51.044;3.766;2023-04-20T12:24:16;101727.16;;;10.16;77.31
63281;BME280;49406;51.044;3.766;2023-04-20T12:26:49;101733.64;;;10.17;77.49
63281;BME280;49406;51.044;3.766;2023-04-20T12:29:24;101728.48;;;10.12;77.36
63281;BME280;49406;51.044;3.766;2023-04-20T12:31:58;101731.16;;;10.01;77.78
63281;BME280;49406;51.044;3.766;2023-04-20T12:34:33;101734.77;;;9.85;78.79
63281;BME280;49406;51.044;3.766;2023-04-20T12:37:07;101729.83;;;9.75;80.00
63281;BME280;49406;51.044;3.766;2023-04-20T12:39:42;101731.80;;;9.78;80.91
63281;BME280;49406;51.044;3.766;2023-04-20T12:42:17;101724.52;;;9.80;81.39
63281;BME280;49406;51.044;3.766;2023-04-20T12:44:54;101728.83;;;9.84;81.38
63281;BME280;49406;51.044;3.766;2023-04-20T12:47:28;101727.98;;;9.92;81.07
63281;BME280;49406;51.044;3.766;2023-04-20T12:50:04;101728.53;;;9.87;81.17
63281;BME280;49406;51.044;3.766;2023-04-20T12:52:39;101727.47;;;9.79;81.55
63281;BME280;49406;51.044;3.766;2023-04-20T12:55:14;101720.09;;;9.77;81.99
63281;BME280;49406;51.044;3.766;2023-04-20T12:57:49;101723.85;;;9.81;81.96
63281;BME280;49406;51.044;3.766;2023-04-20T13:00:24;101714.05;;;9.87;81.69
63281;BME280;49406;51.044;3.766;2023-04-20T13:02:59;101712.49;;;10.02;81.53
63281;BME280;49406;51.044;3.766;2023-04-20T13:05:33;101708.16;;;10.25;80.09
63281;BME280;49406;51.044;3.766;2023-04-20T13:08:08;101721.05;;;10.38;79.61
63281;BME280;49406;51.044;3.766;2023-04-20T13:10:43;101719.67;;;10.31;80.48
63281;BME280;49406;51.044;3.766;2023-04-20T13:13:18;101716.65;;;10.28;81.12
63281;BME280;49406;51.044;3.766;2023-04-20T13:15:53;101706.39;;;10.38;80.68
63281;BME280;49406;51.044;3.766;2023-04-20T13:18:28;101703.57;;;10.53;80.65
63281;BME280;49406;51.044;3.766;2023-04-20T13:21:03;101704.63;;;10.69;79.98
63281;BME280;49406;51.044;3.766;2023-04-20T13:23:37;101703.06;;;10.86;79.31
63281;BME280;49406;51.044;3.766;2023-04-20T13:26:12;101695.77;;;10.97;78.79
63281;BME280;49406;51.044;3.766;2023-04-20T13:28:47;101692.07;;;11.14;78.17
63281;BME280;49406;51.044;3.766;2023-04-20T13:31:21;101690.59;;;11.47;76.80
63281;BME280;49406;51.044;3.766;2023-04-20T13:33:56;101693.15;;;11.93;74.85
63281;BME280;49406;51.044;3.766;2023-04-20T13:36:31;101680.80;;;12.21;73.85
63281;BME280;49406;51.044;3.766;2023-04-20T13:39:06;101679.41;;;12.46;71.84
63281;BME280;49406;51.044;3.766;2023-04-20T13:41:40;101679.27;;;12.48;69.32